sensor_id;sensor_type;location;lat;lon;timestamp;P1;durP1;ratioP1;P2;durP2;ratioP2
2610;SDS011;5612;51.134;17.058;2024-01-06T00:01:36;57.97;;;40.10;;
2610;SDS011;5612;51.134;17.058;2024-01-06T00:04:05;56.77;;;38.27;;
2610;SDS011;5612;51.134;17.058;2024-01-06T00:06:34;48.47;;;37.57;;
2610;SDS011;5612;51.134;17.058;2024-01-06T00:09:02;55.37;;;37.50;;
2610;SDS011;5612;51.134;17.058;2024-01-06T00:11:31;58.00;;;36.80;;
2610;SDS011;5612;51.134;17.058;2024-01-06T00:14:00;50.07;;;38.50;;
2610;SDS011;5612;51.134;17.058;2024-01-06T00:16:31;59.90;;;38.27;;
2610;SDS011;5612;51.134;17.058;2024-01-06T00:19:00;50.43;;;35.60;;
2610;SDS011;5612;51.134;17.058;2024-01-06T00:21:29;55.77;;;38.23;;
2610;SDS011;5612;51.134;17.058;2024-01-06T00:23:58;54.40;;;38.93;;
2610;SDS011;5612;51.134;17.058;2024-01-06T00:26:27;42.70;;;33.33;;
2610;SDS011;5612;51.134;17.058;2024-01-06T00:28:56;50.77;;;37.37;;
2610;SDS011;5612;51.134;17.058;2024-01-06T00:31:25;43.43;;;32.37;;
2610;SDS011;5612;51.134;17.058;2024-01-06T00:33:56;41.47;;;30.33;;
2610;SDS011;5612;51.134;17.058;2024-01-06T00:36:25;44.50;;;32.30;;
2610;SDS011;5612;51.134;17.058;2024-01-06T00:38:54;48.87;;;31.23;;
2610;SDS011;5612;51.134;17.058;2024-01-06T00:41:23;40.03;;;29.90;;
2610;SDS011;5612;51.134;17.058;2024-01-06T00:43:52;41.00;;;31.50;;
2610;SDS011;5612;51.134;17.058;2024-01-06T00:46:21;40.07;;;30.30;;
2610;SDS011;5612;51.134;17.058;2024-01-06T00:48:49;43.63;;;31.67;;
2610;SDS011;5612;51.134;17.058;2024-01-06T00:51:20;47.03;;;33.00;;
2610;SDS011;5612;51.134;17.058;2024-01-06T00:53:50;42.20;;;31.40;;
2610;SDS011;5612;51.134;17.058;2024-01-06T00:56:18;49.27;;;33.63;;
2610;SDS011;5612;51.134;17.058;2024-01-06T00:58:48;46.93;;;33.23;;
2610;SDS011;5612;51.134;17.058;2024-01-06T01:01:16;51.03;;;30.93;;
2610;SDS011;5612;51.134;17.058;2024-01-06T01:03:45;48.77;;;32.90;;
2610;SDS011;5612;51.134;17.058;2024-01-06T01:06:14;51.37;;;34.83;;
2610;SDS011;5612;51.134;17.058;2024-01-06T01:08:45;44.23;;;31.00;;
2610;SDS011;5612;51.134;17.058;2024-01-06T01:11:14;46.37;;;34.90;;
2610;SDS011;5612;51.134;17.058;2024-01-06T01:13:43;43.03;;;33.10;;
2610;SDS011;5612;51.134;17.058;2024-01-06T01:16:11;52.73;;;34.10;;
2610;SDS011;5612;51.134;17.058;2024-01-06T01:18:40;48.10;;;32.70;;
2610;SDS011;5612;51.134;17.058;2024-01-06T01:21:09;41.20;;;29.80;;
2610;SDS011;5612;51.134;17.058;2024-01-06T01:23:38;43.83;;;31.77;;
2610;SDS011;5612;51.134;17.058;2024-01-06T01:26:09;42.30;;;33.60;;
2610;SDS011;5612;51.134;17.058;2024-01-06T01:28:37;48.30;;;33.03;;
2610;SDS011;5612;51.134;17.058;2024-01-06T01:31:06;43.73;;;34.17;;
2610;SDS011;5612;51.134;17.058;2024-01-06T01:33:35;45.87;;;32.97;;
2610;SDS011;5612;51.134;17.058;2024-01-06T01:36:05;43.63;;;31.50;;
2610;SDS011;5612;51.134;17.058;2024-01-06T01:38:34;49.37;;;33.17;;
2610;SDS011;5612;51.134;17.058;2024-01-06T01:41:03;47.10;;;32.97;;
2610;SDS011;5612;51.134;17.058;2024-01-06T01:43:33;51.17;;;33.97;;
2610;SDS011;5612;51.134;17.058;2024-01-06T01:46:02;48.70;;;32.57;;
2610;SDS011;5612;51.134;17.058;2024-01-06T01:48:31;46.57;;;34.70;;
2610;SDS011;5612;51.134;17.058;2024-01-06T01:51:02;51.43;;;34.10;;
2610;SDS011;5612;51.134;17.058;2024-01-06T01:53:31;46.37;;;33.37;;
2610;SDS011;5612;51.134;17.058;2024-01-06T01:56:00;48.07;;;35.80;;
2610;SDS011;5612;51.134;17.058;2024-01-06T01:58:31;47.17;;;33.60;;
2610;SDS011;5612;51.134;17.058;2024-01-06T02:01:01;47.20;;;33.07;;
2610;SDS011;5612;51.134;17.058;2024-01-06T02:03:30;42.07;;;32.37;;
2610;SDS011;5612;51.134;17.058;2024-01-06T02:05:59;39.13;;;31.37;;
2610;SDS011;5612;51.134;17.058;2024-01-06T02:08:28;43.17;;;33.40;;
2610;SDS011;5612;51.134;17.058;2024-01-06T02:10:57;42.30;;;33.20;;
2610;SDS011;5612;51.134;17.058;2024-01-06T02:13:33;40.50;;;33.53;;
2610;SDS011;5612;51.134;17.058;2024-01-06T02:16:03;40.20;;;32.13;;
2610;SDS011;5612;51.134;17.058;2024-01-06T02:18:33;44.93;;;33.20;;
2610;SDS011;5612;51.134;17.058;2024-01-06T02:21:02;39.90;;;31.83;;
2610;SDS011;5612;51.134;17.058;2024-01-06T02:23:34;43.47;;;32.60;;
2610;SDS011;5612;51.134;17.058;2024-01-06T02:26:04;40.90;;;30.13;;
2610;SDS011;5612;51.134;17.058;2024-01-06T02:28:33;48.83;;;32.57;;
2610;SDS011;5612;51.134;17.058;2024-01-06T02:31:02;46.30;;;32.80;;
2610;SDS011;5612;51.134;17.058;2024-01-06T02:33:31;42.57;;;31.83;;
2610;SDS011;5612;51.134;17.058;2024-01-06T02:36:00;45.60;;;33.93;;
2610;SDS011;5612;51.134;17.058;2024-01-06T02:38:29;49.47;;;34.20;;
2610;SDS011;5612;51.134;17.058;2024-01-06T02:40:59;42.00;;;31.70;;
2610;SDS011;5612;51.134;17.058;2024-01-06T02:43:28;50.27;;;31.77;;
2610;SDS011;5612;51.134;17.058;2024-01-06T02:45:57;46.43;;;33.63;;
2610;SDS011;5612;51.134;17.058;2024-01-06T02:48:26;42.60;;;32.10;;
2610;SDS011;5612;51.134;17.058;2024-01-06T02:50:57;44.47;;;31.77;;
2610;SDS011;5612;51.134;17.058;2024-01-06T02:53:26;41.00;;;29.70;;
2610;SDS011;5612;51.134;17.058;2024-01-06T02:55:55;42.87;;;32.03;;
2610;SDS011;5612;51.134;17.058;2024-01-06T02:58:25;45.70;;;35.27;;
2610;SDS011;5612;51.134;17.058;2024-01-06T03:00:54;37.23;;;29.67;;
2610;SDS011;5612;51.134;17.058;2024-01-06T03:03:23;46.77;;;32.07;;
2610;SDS011;5612;51.134;17.058;2024-01-06T03:05:52;43.80;;;30.13;;
2610;SDS011;5612;51.134;17.058;2024-01-06T03:08:21;41.67;;;29.90;;
2610;SDS011;5612;51.134;17.058;2024-01-06T03:10:50;41.10;;;30.57;;
2610;SDS011;5612;51.134;17.058;2024-01-06T03:13:19;41.80;;;30.33;;
2610;SDS011;5612;51.134;17.058;2024-01-06T03:15:49;42.30;;;30.77;;
2610;SDS011;5612;51.134;17.058;2024-01-06T03:18:18;41.57;;;31.17;;
2610;SDS011;5612;51.134;17.058;2024-01-06T03:20:47;41.80;;;31.73;;
2610;SDS011;5612;51.134;17.058;2024-01-06T03:23:16;43.10;;;31.60;;
2610;SDS011;5612;51.134;17.058;2024-01-06T03:25:45;41.33;;;29.40;;
2610;SDS011;5612;51.134;17.058;2024-01-06T03:28:13;45.17;;;31.37;;
2610;SDS011;5612;51.134;17.058;2024-01-06T03:30:42;42.07;;;30.40;;
2610;SDS011;5612;51.134;17.058;2024-01-06T03:33:13;45.43;;;32.60;;
2610;SDS011;5612;51.134;17.058;2024-01-06T03:35:42;45.70;;;29.57;;
2610;SDS011;5612;51.134;17.058;2024-01-06T03:38:11;46.27;;;29.20;;
2610;SDS011;5612;51.134;17.058;2024-01-06T03:40:39;46.60;;;30.60;;
2610;SDS011;5612;51.134;17.058;2024-01-06T03:43:08;36.90;;;30.00;;
2610;SDS011;5612;51.134;17.058;2024-01-06T03:45:37;41.03;;;28.93;;
2610;SDS011;5612;51.134;17.058;2024-01-06T03:48:07;42.10;;;31.97;;
2610;SDS011;5612;51.134;17.058;2024-01-06T03:50:37;41.53;;;30.83;;
2610;SDS011;5612;51.134;17.058;2024-01-06T03:53:06;43.53;;;29.30;;
2610;SDS011;5612;51.134;17.058;2024-01-06T03:55:35;42.43;;;28.47;;
2610;SDS011;5612;51.134;17.058;2024-01-06T03:58:04;44.20;;;30.90;;
2610;SDS011;5612;51.134;17.058;2024-01-06T04:00:33;34.90;;;28.53;;
2610;SDS011;5612;51.134;17.058;2024-01-06T04:03:01;43.70;;;31.93;;
2610;SDS011;5612;51.134;17.058;2024-01-06T04:05:32;43.57;;;29.43;;
2610;SDS011;5612;51.134;17.058;2024-01-06T04:08:02;43.77;;;31.60;;
2610;SDS011;5612;51.134;17.058;2024-01-06T04:10:32;43.27;;;29.70;;
2610;SDS011;5612;51.134;17.058;2024-01-06T04:13:01;41.27;;;31.27;;
2610;SDS011;5612;51.134;17.058;2024-01-06T04:15:29;42.73;;;30.33;;
2610;SDS011;5612;51.134;17.058;2024-01-06T04:18:01;51.07;;;30.87;;
2610;SDS011;5612;51.134;17.058;2024-01-06T04:20:31;42.90;;;28.87;;
2610;SDS011;5612;51.134;17.058;2024-01-06T04:23:00;44.63;;;30.27;;
2610;SDS011;5612;51.134;17.058;2024-01-06T04:25:31;40.43;;;29.80;;
2610;SDS011;5612;51.134;17.058;2024-01-06T04:28:00;43.23;;;30.40;;
2610;SDS011;5612;51.134;17.058;2024-01-06T04:30:28;43.43;;;28.90;;
2610;SDS011;5612;51.134;17.058;2024-01-06T04:32:57;41.73;;;30.50;;
2610;SDS011;5612;51.134;17.058;2024-01-06T04:35:26;38.93;;;28.40;;
2610;SDS011;5612;51.134;17.058;2024-01-06T04:37:55;43.70;;;29.13;;
2610;SDS011;5612;51.134;17.058;2024-01-06T04:40:25;40.80;;;29.93;;
2610;SDS011;5612;51.134;17.058;2024-01-06T04:42:54;45.67;;;27.77;;
2610;SDS011;5612;51.134;17.058;2024-01-06T04:45:23;42.87;;;30.60;;
2610;SDS011;5612;51.134;17.058;2024-01-06T04:47:52;40.80;;;27.50;;
2610;SDS011;5612;51.134;17.058;2024-01-06T04:50:21;40.20;;;30.20;;
2610;SDS011;5612;51.134;17.058;2024-01-06T04:52:49;47.57;;;30.97;;
2610;SDS011;5612;51.134;17.058;2024-01-06T04:55:18;49.93;;;31.37;;
2610;SDS011;5612;51.134;17.058;2024-01-06T04:57:49;48.93;;;31.20;;
2610;SDS011;5612;51.134;17.058;2024-01-06T05:00:18;48.20;;;30.27;;
2610;SDS011;5612;51.134;17.058;2024-01-06T05:02:47;45.03;;;29.60;;
2610;SDS011;5612;51.134;17.058;2024-01-06T05:05:16;44.23;;;30.83;;
2610;SDS011;5612;51.134;17.058;2024-01-06T05:07:45;39.70;;;28.27;;
2610;SDS011;5612;51.134;17.058;2024-01-06T05:10:14;42.33;;;28.97;;
2610;SDS011;5612;51.134;17.058;2024-01-06T05:12:43;51.30;;;32.47;;
2610;SDS011;5612;51.134;17.058;2024-01-06T05:15:13;40.90;;;30.17;;
2610;SDS011;5612;51.134;17.058;2024-01-06T05:17:42;44.67;;;30.37;;
2610;SDS011;5612;51.134;17.058;2024-01-06T05:20:11;45.07;;;29.17;;
2610;SDS011;5612;51.134;17.058;2024-01-06T05:22:40;40.73;;;30.73;;
2610;SDS011;5612;51.134;17.058;2024-01-06T05:25:08;47.17;;;32.20;;
2610;SDS011;5612;51.134;17.058;2024-01-06T05:27:37;41.03;;;31.00;;
2610;SDS011;5612;51.134;17.058;2024-01-06T05:30:07;48.37;;;34.17;;
2610;SDS011;5612;51.134;17.058;2024-01-06T05:32:38;43.00;;;30.50;;
2610;SDS011;5612;51.134;17.058;2024-01-06T05:35:07;42.53;;;31.87;;
2610;SDS011;5612;51.134;17.058;2024-01-06T05:37:36;42.07;;;30.47;;
2610;SDS011;5612;51.134;17.058;2024-01-06T05:40:06;46.50;;;29.60;;
2610;SDS011;5612;51.134;17.058;2024-01-06T05:42:36;51.80;;;30.47;;
2610;SDS011;5612;51.134;17.058;2024-01-06T05:45:05;42.53;;;30.30;;
2610;SDS011;5612;51.134;17.058;2024-01-06T05:47:34;48.00;;;31.60;;
2610;SDS011;5612;51.134;17.058;2024-01-06T05:50:06;43.80;;;30.43;;
2610;SDS011;5612;51.134;17.058;2024-01-06T05:52:37;48.37;;;31.10;;
2610;SDS011;5612;51.134;17.058;2024-01-06T05:55:06;47.53;;;29.73;;
2610;SDS011;5612;51.134;17.058;2024-01-06T05:57:35;46.03;;;31.13;;
2610;SDS011;5612;51.134;17.058;2024-01-06T06:00:07;45.90;;;29.57;;
2610;SDS011;5612;51.134;17.058;2024-01-06T06:02:38;49.93;;;31.57;;
2610;SDS011;5612;51.134;17.058;2024-01-06T06:05:08;41.27;;;29.03;;
2610;SDS011;5612;51.134;17.058;2024-01-06T06:07:37;43.27;;;31.80;;
2610;SDS011;5612;51.134;17.058;2024-01-06T06:10:07;44.30;;;28.70;;
2610;SDS011;5612;51.134;17.058;2024-01-06T06:12:37;41.50;;;29.00;;
2610;SDS011;5612;51.134;17.058;2024-01-06T06:15:06;47.60;;;31.33;;
2610;SDS011;5612;51.134;17.058;2024-01-06T06:17:36;41.40;;;30.47;;
2610;SDS011;5612;51.134;17.058;2024-01-06T06:20:05;40.53;;;28.77;;
2610;SDS011;5612;51.134;17.058;2024-01-06T06:22:36;42.03;;;29.67;;
2610;SDS011;5612;51.134;17.058;2024-01-06T06:25:05;36.93;;;27.60;;
2610;SDS011;5612;51.134;17.058;2024-01-06T06:27:35;39.07;;;27.67;;
2610;SDS011;5612;51.134;17.058;2024-01-06T06:30:06;39.73;;;27.83;;
2610;SDS011;5612;51.134;17.058;2024-01-06T06:32:36;39.63;;;26.20;;
2610;SDS011;5612;51.134;17.058;2024-01-06T06:35:06;34.93;;;24.40;;
2610;SDS011;5612;51.134;17.058;2024-01-06T06:37:37;33.10;;;24.80;;
2610;SDS011;5612;51.134;17.058;2024-01-06T06:40:06;34.47;;;24.97;;
2610;SDS011;5612;51.134;17.058;2024-01-06T06:42:36;34.93;;;27.07;;
2610;SDS011;5612;51.134;17.058;2024-01-06T06:45:05;31.73;;;24.47;;
2610;SDS011;5612;51.134;17.058;2024-01-06T06:47:34;30.27;;;23.27;;
2610;SDS011;5612;51.134;17.058;2024-01-06T06:50:04;35.30;;;25.63;;
2610;SDS011;5612;51.134;17.058;2024-01-06T06:52:34;42.57;;;27.10;;
2610;SDS011;5612;51.134;17.058;2024-01-06T06:55:03;33.37;;;24.90;;
2610;SDS011;5612;51.134;17.058;2024-01-06T06:57:33;37.10;;;26.00;;
2610;SDS011;5612;51.134;17.058;2024-01-06T07:00:01;33.60;;;25.20;;
2610;SDS011;5612;51.134;17.058;2024-01-06T07:02:31;33.27;;;24.93;;
2610;SDS011;5612;51.134;17.058;2024-01-06T07:05:00;43.03;;;27.27;;
2610;SDS011;5612;51.134;17.058;2024-01-06T07:07:29;38.90;;;27.43;;
2610;SDS011;5612;51.134;17.058;2024-01-06T07:09:59;34.70;;;27.30;;
2610;SDS011;5612;51.134;17.058;2024-01-06T07:12:29;34.77;;;26.53;;
2610;SDS011;5612;51.134;17.058;2024-01-06T07:14:57;36.63;;;26.20;;
2610;SDS011;5612;51.134;17.058;2024-01-06T07:17:28;39.30;;;25.17;;
2610;SDS011;5612;51.134;17.058;2024-01-06T07:19:57;38.10;;;26.67;;
2610;SDS011;5612;51.134;17.058;2024-01-06T07:22:26;38.43;;;25.93;;
2610;SDS011;5612;51.134;17.058;2024-01-06T07:24:55;32.67;;;24.23;;
2610;SDS011;5612;51.134;17.058;2024-01-06T07:27:25;33.93;;;24.30;;
2610;SDS011;5612;51.134;17.058;2024-01-06T07:29:54;31.87;;;23.80;;
2610;SDS011;5612;51.134;17.058;2024-01-06T07:32:23;30.60;;;24.13;;
2610;SDS011;5612;51.134;17.058;2024-01-06T07:34:52;30.83;;;24.13;;
2610;SDS011;5612;51.134;17.058;2024-01-06T07:37:21;44.03;;;25.03;;
2610;SDS011;5612;51.134;17.058;2024-01-06T07:39:51;33.67;;;25.43;;
2610;SDS011;5612;51.134;17.058;2024-01-06T07:42:20;31.07;;;25.00;;
2610;SDS011;5612;51.134;17.058;2024-01-06T07:44:50;32.63;;;24.40;;
2610;SDS011;5612;51.134;17.058;2024-01-06T07:47:19;31.60;;;24.73;;
2610;SDS011;5612;51.134;17.058;2024-01-06T07:49:48;36.67;;;26.77;;
2610;SDS011;5612;51.134;17.058;2024-01-06T07:52:17;38.60;;;25.13;;
2610;SDS011;5612;51.134;17.058;2024-01-06T07:54:46;32.07;;;24.13;;
2610;SDS011;5612;51.134;17.058;2024-01-06T07:57:15;27.20;;;22.30;;
2610;SDS011;5612;51.134;17.058;2024-01-06T07:59:45;31.37;;;23.03;;
2610;SDS011;5612;51.134;17.058;2024-01-06T08:02:15;28.37;;;22.10;;
2610;SDS011;5612;51.134;17.058;2024-01-06T08:04:44;28.80;;;22.43;;
2610;SDS011;5612;51.134;17.058;2024-01-06T08:07:13;30.43;;;23.73;;
2610;SDS011;5612;51.134;17.058;2024-01-06T08:09:42;29.03;;;23.40;;
2610;SDS011;5612;51.134;17.058;2024-01-06T08:12:11;30.93;;;22.93;;
2610;SDS011;5612;51.134;17.058;2024-01-06T08:14:40;33.03;;;23.60;;
2610;SDS011;5612;51.134;17.058;2024-01-06T08:17:09;28.90;;;22.37;;
2610;SDS011;5612;51.134;17.058;2024-01-06T08:19:40;28.37;;;22.63;;
2610;SDS011;5612;51.134;17.058;2024-01-06T08:22:09;31.23;;;22.77;;
2610;SDS011;5612;51.134;17.058;2024-01-06T08:24:38;27.63;;;21.87;;
2610;SDS011;5612;51.134;17.058;2024-01-06T08:27:07;31.30;;;22.63;;
2610;SDS011;5612;51.134;17.058;2024-01-06T08:29:36;28.47;;;21.73;;
2610;SDS011;5612;51.134;17.058;2024-01-06T08:32:05;26.63;;;22.30;;
2610;SDS011;5612;51.134;17.058;2024-01-06T08:34:35;30.80;;;22.73;;
2610;SDS011;5612;51.134;17.058;2024-01-06T08:37:05;27.23;;;22.50;;
2610;SDS011;5612;51.134;17.058;2024-01-06T08:39:35;32.33;;;20.77;;
2610;SDS011;5612;51.134;17.058;2024-01-06T08:42:08;31.97;;;21.37;;
2610;SDS011;5612;51.134;17.058;2024-01-06T08:44:37;30.63;;;22.43;;
2610;SDS011;5612;51.134;17.058;2024-01-06T08:47:06;25.47;;;20.73;;
2610;SDS011;5612;51.134;17.058;2024-01-06T08:49:35;30.50;;;21.27;;
2610;SDS011;5612;51.134;17.058;2024-01-06T08:52:05;27.97;;;21.80;;
2610;SDS011;5612;51.134;17.058;2024-01-06T08:54:34;26.00;;;22.23;;
2610;SDS011;5612;51.134;17.058;2024-01-06T08:57:03;24.80;;;20.10;;
2610;SDS011;5612;51.134;17.058;2024-01-06T08:59:33;26.73;;;21.80;;
2610;SDS011;5612;51.134;17.058;2024-01-06T09:02:02;29.23;;;23.67;;
2610;SDS011;5612;51.134;17.058;2024-01-06T09:04:31;27.60;;;23.00;;
2610;SDS011;5612;51.134;17.058;2024-01-06T09:07:00;28.30;;;21.33;;
2610;SDS011;5612;51.134;17.058;2024-01-06T09:09:30;30.60;;;22.47;;
2610;SDS011;5612;51.134;17.058;2024-01-06T09:11:59;31.17;;;22.77;;
2610;SDS011;5612;51.134;17.058;2024-01-06T09:14:29;28.30;;;21.23;;
2610;SDS011;5612;51.134;17.058;2024-01-06T09:16:58;33.97;;;23.40;;
2610;SDS011;5612;51.134;17.058;2024-01-06T09:19:27;28.07;;;23.13;;
2610;SDS011;5612;51.134;17.058;2024-01-06T09:21:57;33.17;;;23.50;;
2610;SDS011;5612;51.134;17.058;2024-01-06T09:24:26;29.13;;;23.07;;
2610;SDS011;5612;51.134;17.058;2024-01-06T09:26:57;31.43;;;23.00;;
2610;SDS011;5612;51.134;17.058;2024-01-06T09:29:25;32.03;;;25.70;;
2610;SDS011;5612;51.134;17.058;2024-01-06T09:31:55;29.07;;;24.60;;
2610;SDS011;5612;51.134;17.058;2024-01-06T09:34:23;29.80;;;24.17;;
2610;SDS011;5612;51.134;17.058;2024-01-06T09:36:53;35.53;;;25.67;;
2610;SDS011;5612;51.134;17.058;2024-01-06T09:39:22;32.30;;;24.90;;
2610;SDS011;5612;51.134;17.058;2024-01-06T09:41:50;30.07;;;24.13;;
2610;SDS011;5612;51.134;17.058;2024-01-06T09:44:21;30.63;;;25.00;;
2610;SDS011;5612;51.134;17.058;2024-01-06T09:46:50;30.30;;;22.87;;
2610;SDS011;5612;51.134;17.058;2024-01-06T09:49:23;36.40;;;25.97;;
2610;SDS011;5612;51.134;17.058;2024-01-06T09:51:52;31.20;;;24.87;;
2610;SDS011;5612;51.134;17.058;2024-01-06T09:54:25;32.03;;;23.93;;
2610;SDS011;5612;51.134;17.058;2024-01-06T09:56:55;28.00;;;24.23;;
2610;SDS011;5612;51.134;17.058;2024-01-06T09:59:26;29.27;;;23.30;;
2610;SDS011;5612;51.134;17.058;2024-01-06T10:01:57;32.10;;;25.47;;
2610;SDS011;5612;51.134;17.058;2024-01-06T10:04:26;30.70;;;24.00;;
2610;SDS011;5612;51.134;17.058;2024-01-06T10:06:55;28.33;;;24.00;;
2610;SDS011;5612;51.134;17.058;2024-01-06T10:09:27;31.23;;;23.97;;
2610;SDS011;5612;51.134;17.058;2024-01-06T10:11:57;32.60;;;27.00;;
2610;SDS011;5612;51.134;17.058;2024-01-06T10:14:27;31.30;;;23.50;;
2610;SDS011;5612;51.134;17.058;2024-01-06T10:16:57;39.27;;;26.90;;
2610;SDS011;5612;51.134;17.058;2024-01-06T10:19:25;32.50;;;24.43;;
2610;SDS011;5612;51.134;17.058;2024-01-06T10:21:55;32.50;;;26.53;;
2610;SDS011;5612;51.134;17.058;2024-01-06T10:24:27;33.03;;;26.43;;
2610;SDS011;5612;51.134;17.058;2024-01-06T10:26:57;33.37;;;27.00;;
2610;SDS011;5612;51.134;17.058;2024-01-06T10:29:28;34.20;;;26.43;;
2610;SDS011;5612;51.134;17.058;2024-01-06T10:31:58;30.60;;;24.90;;
2610;SDS011;5612;51.134;17.058;2024-01-06T10:34:27;31.73;;;24.80;;
2610;SDS011;5612;51.134;17.058;2024-01-06T10:36:59;31.27;;;23.00;;
2610;SDS011;5612;51.134;17.058;2024-01-06T10:39:28;29.43;;;22.43;;
2610;SDS011;5612;51.134;17.058;2024-01-06T10:41:57;27.37;;;22.20;;
2610;SDS011;5612;51.134;17.058;2024-01-06T10:44:29;25.47;;;21.70;;
2610;SDS011;5612;51.134;17.058;2024-01-06T10:46:59;27.80;;;22.53;;
2610;SDS011;5612;51.134;17.058;2024-01-06T10:49:30;25.70;;;21.77;;
2610;SDS011;5612;51.134;17.058;2024-01-06T10:52:00;27.43;;;20.60;;
2610;SDS011;5612;51.134;17.058;2024-01-06T10:54:29;30.20;;;23.90;;
2610;SDS011;5612;51.134;17.058;2024-01-06T10:56:59;32.37;;;24.40;;
2610;SDS011;5612;51.134;17.058;2024-01-06T10:59:32;34.63;;;23.47;;
2610;SDS011;5612;51.134;17.058;2024-01-06T11:02:02;32.90;;;25.43;;
2610;SDS011;5612;51.134;17.058;2024-01-06T11:04:32;33.47;;;24.80;;
2610;SDS011;5612;51.134;17.058;2024-01-06T11:07:03;33.23;;;25.13;;
2610;SDS011;5612;51.134;17.058;2024-01-06T11:09:32;29.63;;;22.97;;
2610;SDS011;5612;51.134;17.058;2024-01-06T11:12:06;44.53;;;32.03;;
2610;SDS011;5612;51.134;17.058;2024-01-06T11:14:37;36.03;;;26.90;;
2610;SDS011;5612;51.134;17.058;2024-01-06T11:17:06;34.43;;;26.80;;
2610;SDS011;5612;51.134;17.058;2024-01-06T11:19:43;33.70;;;26.50;;
2610;SDS011;5612;51.134;17.058;2024-01-06T11:22:18;38.40;;;29.93;;
2610;SDS011;5612;51.134;17.058;2024-01-06T11:25:03;37.57;;;30.53;;
2610;SDS011;5612;51.134;17.058;2024-01-06T11:27:35;34.60;;;27.90;;
2610;SDS011;5612;51.134;17.058;2024-01-06T11:30:07;41.83;;;29.63;;
2610;SDS011;5612;51.134;17.058;2024-01-06T11:32:36;39.50;;;28.40;;
2610;SDS011;5612;51.134;17.058;2024-01-06T11:35:10;38.70;;;28.63;;
2610;SDS011;5612;51.134;17.058;2024-01-06T11:37:50;40.80;;;31.07;;
2610;SDS011;5612;51.134;17.058;2024-01-06T11:40:29;40.03;;;29.50;;
2610;SDS011;5612;51.134;17.058;2024-01-06T11:43:01;39.43;;;30.70;;
2610;SDS011;5612;51.134;17.058;2024-01-06T11:45:34;42.23;;;31.93;;
2610;SDS011;5612;51.134;17.058;2024-01-06T11:48:04;43.23;;;31.73;;
2610;SDS011;5612;51.134;17.058;2024-01-06T11:50:34;39.87;;;30.87;;
2610;SDS011;5612;51.134;17.058;2024-01-06T11:53:05;45.77;;;32.27;;
2610;SDS011;5612;51.134;17.058;2024-01-06T11:55:38;39.87;;;31.37;;
2610;SDS011;5612;51.134;17.058;2024-01-06T11:58:09;44.07;;;32.43;;
2610;SDS011;5612;51.134;17.058;2024-01-06T12:00:40;47.10;;;33.27;;
2610;SDS011;5612;51.134;17.058;2024-01-06T12:03:15;42.40;;;33.73;;
2610;SDS011;5612;51.134;17.058;2024-01-06T12:05:44;46.57;;;32.80;;
2610;SDS011;5612;51.134;17.058;2024-01-06T12:08:13;47.00;;;32.40;;
2610;SDS011;5612;51.134;17.058;2024-01-06T12:10:47;46.97;;;33.30;;
2610;SDS011;5612;51.134;17.058;2024-01-06T12:13:16;51.10;;;31.53;;
2610;SDS011;5612;51.134;17.058;2024-01-06T12:15:47;44.13;;;32.17;;
2610;SDS011;5612;51.134;17.058;2024-01-06T12:18:16;46.47;;;33.10;;
2610;SDS011;5612;51.134;17.058;2024-01-06T12:20:45;43.27;;;31.90;;
2610;SDS011;5612;51.134;17.058;2024-01-06T12:23:23;46.40;;;33.37;;
2610;SDS011;5612;51.134;17.058;2024-01-06T12:25:52;47.10;;;32.50;;
2610;SDS011;5612;51.134;17.058;2024-01-06T12:28:21;45.53;;;31.27;;
2610;SDS011;5612;51.134;17.058;2024-01-06T12:30:53;44.90;;;34.37;;
2610;SDS011;5612;51.134;17.058;2024-01-06T12:33:22;50.17;;;32.70;;
2610;SDS011;5612;51.134;17.058;2024-01-06T12:35:52;47.73;;;32.27;;
2610;SDS011;5612;51.134;17.058;2024-01-06T12:38:21;50.30;;;33.70;;
2610;SDS011;5612;51.134;17.058;2024-01-06T12:40:50;49.80;;;34.80;;
2610;SDS011;5612;51.134;17.058;2024-01-06T12:43:19;50.73;;;35.20;;
2610;SDS011;5612;51.134;17.058;2024-01-06T12:45:48;47.63;;;33.90;;
2610;SDS011;5612;51.134;17.058;2024-01-06T12:48:21;51.30;;;33.67;;
2610;SDS011;5612;51.134;17.058;2024-01-06T12:50:50;50.10;;;35.60;;
2610;SDS011;5612;51.134;17.058;2024-01-06T12:53:19;51.33;;;35.97;;
2610;SDS011;5612;51.134;17.058;2024-01-06T12:55:48;46.60;;;33.60;;
2610;SDS011;5612;51.134;17.058;2024-01-06T12:58:17;52.53;;;36.30;;
2610;SDS011;5612;51.134;17.058;2024-01-06T13:00:45;60.50;;;46.07;;
2610;SDS011;5612;51.134;17.058;2024-01-06T13:03:14;51.43;;;38.47;;
2610;SDS011;5612;51.134;17.058;2024-01-06T13:05:45;46.50;;;34.37;;
2610;SDS011;5612;51.134;17.058;2024-01-06T13:08:14;48.23;;;35.37;;
2610;SDS011;5612;51.134;17.058;2024-01-06T13:10:43;47.97;;;31.97;;
2610;SDS011;5612;51.134;17.058;2024-01-06T13:13:12;51.90;;;35.00;;
2610;SDS011;5612;51.134;17.058;2024-01-06T13:15:42;50.93;;;33.77;;
2610;SDS011;5612;51.134;17.058;2024-01-06T13:18:13;50.27;;;33.97;;
2610;SDS011;5612;51.134;17.058;2024-01-06T13:20:45;55.00;;;34.00;;
2610;SDS011;5612;51.134;17.058;2024-01-06T13:23:14;47.53;;;32.23;;
2610;SDS011;5612;51.134;17.058;2024-01-06T13:25:44;46.53;;;31.97;;
2610;SDS011;5612;51.134;17.058;2024-01-06T13:28:13;48.27;;;33.33;;
2610;SDS011;5612;51.134;17.058;2024-01-06T13:30:42;50.23;;;32.93;;
2610;SDS011;5612;51.134;17.058;2024-01-06T13:33:11;49.10;;;32.57;;
2610;SDS011;5612;51.134;17.058;2024-01-06T13:35:41;44.63;;;31.67;;
2610;SDS011;5612;51.134;17.058;2024-01-06T13:38:11;44.73;;;33.50;;
2610;SDS011;5612;51.134;17.058;2024-01-06T13:40:40;47.20;;;32.60;;
2610;SDS011;5612;51.134;17.058;2024-01-06T13:43:09;40.57;;;28.60;;
2610;SDS011;5612;51.134;17.058;2024-01-06T13:45:42;46.80;;;32.30;;
2610;SDS011;5612;51.134;17.058;2024-01-06T13:48:12;46.83;;;31.47;;
2610;SDS011;5612;51.134;17.058;2024-01-06T13:50:41;46.40;;;32.67;;
2610;SDS011;5612;51.134;17.058;2024-01-06T13:53:13;52.50;;;32.20;;
2610;SDS011;5612;51.134;17.058;2024-01-06T13:55:43;56.80;;;36.27;;
2610;SDS011;5612;51.134;17.058;2024-01-06T13:58:13;44.67;;;35.00;;
2610;SDS011;5612;51.134;17.058;2024-01-06T14:00:42;46.57;;;32.53;;
2610;SDS011;5612;51.134;17.058;2024-01-06T14:03:12;44.70;;;29.30;;
2610;SDS011;5612;51.134;17.058;2024-01-06T14:05:41;45.37;;;31.10;;
2610;SDS011;5612;51.134;17.058;2024-01-06T14:08:10;47.63;;;34.00;;
2610;SDS011;5612;51.134;17.058;2024-01-06T14:10:41;46.90;;;30.30;;
2610;SDS011;5612;51.134;17.058;2024-01-06T14:13:11;47.27;;;31.43;;
2610;SDS011;5612;51.134;17.058;2024-01-06T14:15:41;46.97;;;32.43;;
2610;SDS011;5612;51.134;17.058;2024-01-06T14:18:10;47.73;;;31.27;;
2610;SDS011;5612;51.134;17.058;2024-01-06T14:20:43;53.10;;;35.10;;
2610;SDS011;5612;51.134;17.058;2024-01-06T14:23:14;46.30;;;32.53;;
2610;SDS011;5612;51.134;17.058;2024-01-06T14:25:43;57.90;;;36.80;;
2610;SDS011;5612;51.134;17.058;2024-01-06T14:28:12;55.53;;;35.57;;
2610;SDS011;5612;51.134;17.058;2024-01-06T14:30:41;49.37;;;35.70;;
2610;SDS011;5612;51.134;17.058;2024-01-06T14:33:10;48.80;;;35.13;;
2610;SDS011;5612;51.134;17.058;2024-01-06T14:35:40;51.20;;;33.63;;
2610;SDS011;5612;51.134;17.058;2024-01-06T14:38:10;54.40;;;36.70;;
2610;SDS011;5612;51.134;17.058;2024-01-06T14:40:41;47.47;;;33.23;;
2610;SDS011;5612;51.134;17.058;2024-01-06T14:43:10;47.20;;;32.17;;
2610;SDS011;5612;51.134;17.058;2024-01-06T14:45:39;41.93;;;30.90;;
2610;SDS011;5612;51.134;17.058;2024-01-06T14:48:08;46.83;;;31.87;;